Terminal Aerodrome Forecast
Issued by NWS Jackson, MS

Home | Current Version | Previous Version | Text Only | Print | Product List | Glossary On
Versions: 1 2 3 4 5 6 7 8 9 10 11 12 13 14 15 16 17 18 19 20 21 22 23 24 25 26
000
FTUS44 KJAN 231700
TAFHBG
TAF
KHBG 231723Z 2318/2418 10005KT P6SM VCTS SCT035CB BKN250
     FM240300 00000KT 6SM BR SCT250
     FM240600 00000KT 3SM BR SCT003
     FM241100 00000KT 1SM BR OVC003
     FM241300 26003KT 4SM BR SCT004
     FM241500 27004KT P6SM SCT250=

USA.gov is the U.S. government's official web portal to all federal, state and local government web resources and services.